Time;durP1;ratioP1;P1;durP2;ratioP2;P2;SDS_P1;SDS_P2;PMS_P1;PMS_P2;Temp;Humidity;BMP_temperature;BMP_pressure;BME280_temperature;BME280_humidity;BME280_pressure;Samples;Min_cycle;Max_cycle;Signal;HPM_P1;HPM_P2
2022/02/10 00:14:13;;;;;;;;;;;3.20;73.40;;;1.77;66.20;96757.25;4972986;28;19953;-64
2022/02/10 00:22:08;;;;;;;;;;;3.30;73.30;;;1.72;68.18;96755.03;4965613;28;19961;-64
2022/02/10 00:35:27;;;;;;;;;;;3.30;72.90;;;1.68;68.65;96757.97;4971091;28;19945;-65
2022/02/10 00:37:59;;;;;;;;;;;3.30;73.00;;;1.66;69.17;96760.69;4970567;28;19918;-65
2022/02/10 00:40:26;;;;;;;;;;;3.30;73.00;;;1.69;68.89;96759.63;4964020;28;19922;-65
2022/02/10 00:42:53;;;;;;;;;;;3.40;72.90;;;1.67;69.34;96753.72;4962037;28;19937;-65
2022/02/10 00:45:22;;;;;;;;;;;3.30;72.80;;;1.69;68.74;96759.63;4970042;28;20000;-64
2022/02/10 00:47:57;;;;;;;;;;;3.40;72.60;;;1.68;68.35;96763.97;4972093;28;19925;-65
2022/02/10 00:50:24;;;;;;;;;;;3.40;72.60;;;1.69;68.24;96767.41;4954809;28;19922;-66
2022/02/10 00:52:55;;;;;;;;;;;3.30;72.50;;;1.66;68.65;96760.69;4963766;28;19927;-65
2022/02/10 00:55:26;;;;;;;;;;;3.40;72.40;;;1.65;69.09;96758.22;4968182;28;20005;-65
2022/02/10 00:57:52;;;;;;;;;;;3.40;72.40;;;1.63;68.42;96760.94;4970209;28;19918;-65
2022/02/10 01:29:45;;;;;;;;;;;2.90;72.80;;;1.31;67.99;96759.94;4969144;28;19925;-65
2022/02/10 01:32:11;;;;;;;;;;;2.80;72.90;;;1.26;68.53;96767.25;4939926;28;19917;-65
2022/02/10 01:34:47;;;;;;;;;;;2.90;73.10;;;1.26;69.20;96762.06;4957543;28;20386;-65
2022/02/10 01:37:13;;;;;;;;;;;2.90;73.00;;;1.27;69.13;96750.75;4950165;28;19918;-65
2022/02/10 01:39:45;;;;;;;;;;;3.00;72.70;;;1.28;69.26;96755.00;4949107;28;19926;-65
2022/02/10 02:03:17;;;;;;;;;;;3.00;71.50;;;1.29;68.27;96725.53;4969378;28;20064;-67
2022/02/10 02:04:07;;;;;;;;;;;3.10;71.00;;;1.33;68.15;96724.34;4947814;28;19937;-65
2022/02/10 02:06:39;;;;;;;;;;;3.10;70.90;;;1.32;67.22;96713.16;4968547;28;19918;-65
2022/02/10 02:09:09;;;;;;;;;;;3.00;71.00;;;1.32;67.74;96714.94;4968609;28;20353;-65
2022/02/10 02:11:39;;;;;;;;;;;3.10;71.20;;;1.33;68.97;96712.22;4968381;28;19989;-65
2022/02/10 02:14:05;;;;;;;;;;;3.10;71.20;;;1.33;68.22;96706.22;4968610;28;19918;-65
2022/02/10 02:16:31;;;;;;;;;;;3.10;70.80;;;1.31;68.02;96701.16;4968228;28;19922;-65
2022/02/10 02:18:56;;;;;;;;;;;3.10;70.60;;;1.30;68.10;96696.91;4968627;28;19928;-66
2022/02/10 02:21:22;;;;;;;;;;;3.10;70.50;;;1.28;68.45;96695.38;4938887;28;19980;-65
2022/02/10 02:23:48;;;;;;;;;;;3.00;70.60;;;1.26;67.90;96692.09;4966985;28;19929;-66
2022/02/10 02:26:19;;;;;;;;;;;3.00;70.60;;;1.22;69.02;96689.72;4964477;28;19925;-65
2022/02/10 02:28:51;;;;;;;;;;;3.00;70.60;;;1.21;68.90;96690.66;4953240;28;20374;-65
2022/02/10 02:31:23;;;;;;;;;;;3.00;70.50;;;1.19;67.85;96689.97;4963768;28;20362;-65
2022/02/10 02:36:59;;;;;;;;;;;2.90;70.60;;;1.16;67.95;96690.22;4968238;28;19929;-63
2022/02/10 03:06:26;;;;;;;;;;;2.60;71.50;;;0.86;68.88;96682.13;4968080;28;19999;-65
2022/02/10 03:08:56;;;;;;;;;;;2.60;71.60;;;0.82;69.43;96676.38;4961271;28;19936;-65
2022/02/10 03:11:22;;;;;;;;;;;2.60;71.70;;;0.81;68.99;96673.88;4952643;28;19918;-65
2022/02/10 03:13:55;;;;;;;;;;;2.60;71.70;;;0.78;69.31;96669.78;4949866;28;19925;-65
2022/02/10 04:00:35;;;;;;;;;;;2.30;73.30;;;0.56;70.31;96656.78;4950592;28;19941;-65
2022/02/10 04:08:25;;;;;;;;;;;2.40;73.30;;;0.54;70.75;96656.06;4958155;28;20002;-70
2022/02/10 04:16:21;;;;;;;;;;;2.40;73.30;;;0.53;71.00;96649.25;4969922;28;19980;-68
2022/02/10 04:19:37;;;;;;;;;;;2.30;73.60;;;0.51;71.05;96657.13;4943547;28;19930;-71
2022/02/10 04:25:07;;;;;;;;;;;2.40;73.40;;;0.51;70.39;96646.75;4960627;28;20227;-64
2022/02/10 04:27:32;;;;;;;;;;;2.40;73.20;;;0.51;71.06;96651.13;4970368;28;19929;-64
2022/02/10 05:05:50;;;;;;;;;;;2.20;72.60;;;0.35;70.48;96625.53;4970516;28;20049;-66
2022/02/10 05:08:33;;;;;;;;;;;2.20;72.50;;;0.32;70.20;96619.75;4968634;28;20331;-66
2022/02/10 05:19:12;;;;;;;;;;;2.10;73.10;;;0.27;71.84;96612.34;4953901;28;19953;-65
2022/02/10 05:22:13;;;;;;;;;;;2.10;73.80;;;0.26;70.10;96616.69;4969283;28;20305;-66
2022/02/10 05:35:28;;;;;;;;;;;1.80;73.00;;;0.04;69.77;96626.13;4971264;28;19950;-65
2022/02/10 05:38:20;;;;;;;;;;;1.70;73.20;;;0.01;70.78;96613.44;4985574;28;19940;-66
2022/02/10 05:45:50;;;;;;;;;;;1.80;73.20;;;-0.01;69.58;96623.88;4969349;28;19918;-65
2022/02/10 05:53:53;;;;;;;;;;;1.70;72.90;;;-0.09;70.18;96626.19;4958462;28;19922;-65
2022/02/10 05:56:37;;;;;;;;;;;1.70;72.90;;;-0.10;69.62;96622.78;4981657;28;19925;-65
2022/02/10 06:53:49;;;;;;;;;;;1.90;71.60;;;-0.04;69.46;96640.44;4969839;28;19972;-66
2022/02/10 07:09:48;;;;;;;;;;;2.00;71.90;;;0.09;69.78;96637.78;4968870;28;19918;-65
2022/02/10 07:57:46;;;;;;;;;;;6.30;56.90;;;2.81;63.62;96635.50;4950554;28;20406;-66
2022/02/10 08:55:10;;;;;;;;;;;9.90;45.90;;;6.35;56.15;96580.66;4971994;28;20005;-66
2022/02/10 09:08:48;;;;;;;;;;;13.60;38.80;;;8.32;52.89;96576.09;4959118;28;19918;-67
2022/02/10 09:14:09;;;;;;;;;;;14.40;37.10;;;9.33;51.67;96566.00;4951708;28;19936;-67
2022/02/10 09:50:22;;;;;;;;;;;22.30;25.80;;;14.44;44.45;96548.78;4970565;28;19928;-66
2022/02/10 09:55:20;;;;;;;;;;;23.40;24.50;;;15.25;43.46;96545.91;4969426;28;20076;-66
2022/02/10 09:57:19;;;;;;;;;;;23.90;23.60;;;15.83;44.30;96546.75;4962060;28;19948;-66
2022/02/10 10:02:31;;;;;;;;;;;25.90;21.70;;;17.08;41.26;96547.78;4958873;28;19924;-67
2022/02/10 10:05:09;;;;;;;;;;;27.00;21.00;;;17.67;41.88;96545.56;4947364;28;19918;-66
2022/02/10 10:16:34;;;;;;;;;;;30.30;17.70;;;19.87;39.96;96537.41;4969389;28;20592;-66
2022/02/10 10:19:21;;;;;;;;;;;30.70;17.60;;;20.35;39.12;96528.97;4970020;28;19941;-66
2022/02/10 10:22:00;;;;;;;;;;;32.20;16.60;;;20.69;38.00;96532.53;4968626;28;20369;-67
2022/02/10 10:57:10;;;;;;;;;;;35.20;14.50;;;24.46;33.61;96477.03;4969814;28;19928;-66
2022/02/10 10:59:53;;;;;;;;;;;34.70;14.90;;;24.41;33.37;96465.16;4954930;28;19968;-67
2022/02/10 11:41:05;;;;;;;;;;;33.20;15.80;;;24.07;31.21;96421.84;4973621;28;19922;-65
2022/02/10 11:43:38;;;;;;;;;;;33.60;15.50;;;24.45;31.65;96416.25;4974687;28;19913;-67
2022/02/10 13:25:59;;;;;;;;;;;22.60;26.10;;;21.46;30.13;96338.34;4972486;28;19949;-65
2022/02/10 14:14:21;;;;;;;;;;;15.70;38.90;;;14.48;40.07;96371.84;4956457;28;19929;-66
2022/02/10 14:16:55;;;;;;;;;;;15.50;39.50;;;14.28;39.92;96366.56;4970838;28;19925;-65
2022/02/10 14:27:26;;;;;;;;;;;14.90;41.20;;;13.69;41.55;96380.59;4957183;28;20013;-65
2022/02/10 14:29:51;;;;;;;;;;;14.70;41.80;;;13.61;41.26;96388.72;4970134;28;20306;-67
2022/02/10 14:32:19;;;;;;;;;;;14.80;42.00;;;13.49;41.39;96378.72;4953130;28;19922;-66
2022/02/10 14:34:48;;;;;;;;;;;14.60;42.70;;;13.33;42.24;96375.63;4954311;28;19976;-65
2022/02/10 15:16:27;;;;;;;;;;;19.80;33.30;;;16.61;39.17;96357.13;4973568;28;19925;-66
2022/02/10 15:46:16;;;;;;;;;;;16.80;38.70;;;15.14;40.66;96353.09;4968757;28;19921;-66
2022/02/10 15:50:29;;;;;;;;;;;15.50;41.60;;;14.16;42.58;96349.69;4971666;28;19914;-66
2022/02/10 16:17:13;;;;;;;;;;;13.00;48.50;;;11.84;46.55;96358.53;4962662;28;19937;-65
2022/02/10 16:19:41;;;;;;;;;;;13.00;48.70;;;11.70;47.07;96352.28;4952178;28;19953;-65
2022/02/10 16:22:22;;;;;;;;;;;12.80;49.10;;;11.59;48.72;96348.38;4942852;28;19928;-67
2022/02/10 16:25:09;;;;;;;;;;;12.80;49.30;;;11.48;47.52;96343.59;4962887;28;19953;-66
2022/02/10 16:27:37;;;;;;;;;;;12.60;49.70;;;11.35;47.75;96346.09;4958073;28;19922;-70
2022/02/10 16:30:13;;;;;;;;;;;12.50;50.00;;;11.23;47.98;96352.84;4954531;28;19922;-67
2022/02/10 16:32:41;;;;;;;;;;;12.40;50.50;;;11.13;48.21;96347.91;4971305;28;19922;-68
2022/02/10 16:35:08;;;;;;;;;;;12.30;50.70;;;11.03;49.22;96350.81;4969722;28;19924;-69
2022/02/10 16:37:35;;;;;;;;;;;12.30;50.90;;;10.94;49.67;96357.19;4970465;28;20016;-67
2022/02/10 16:40:01;;;;;;;;;;;12.10;51.40;;;10.83;49.56;96355.03;4953031;28;19921;-67
2022/02/10 16:42:27;;;;;;;;;;;12.00;51.90;;;10.75;49.57;96357.78;4969592;28;19918;-66
2022/02/10 16:44:53;;;;;;;;;;;12.00;52.10;;;10.68;50.27;96356.88;4938702;28;19996;-63
2022/02/10 16:47:18;;;;;;;;;;;12.00;52.30;;;10.60;49.78;96354.34;4970463;28;20377;-65
2022/02/10 16:49:51;;;;;;;;;;;11.80;52.80;;;10.54;50.90;96355.06;4937559;28;19925;-64
2022/02/10 16:52:27;;;;;;;;;;;11.80;53.10;;;10.45;51.76;96356.97;4971271;28;19922;-64
2022/02/10 16:55:06;;;;;;;;;;;11.60;53.60;;;10.39;51.36;96355.88;4969104;28;19917;-64
2022/02/10 16:57:40;;;;;;;;;;;11.60;53.70;;;10.35;52.35;96357.25;4960177;28;19921;-64
2022/02/10 17:06:03;;;;;;;;;;;11.50;54.40;;;10.23;51.98;96377.09;4957304;28;19972;-63
2022/02/10 17:17:17;;;;;;;;;;;11.40;56.10;;;10.02;52.51;96392.72;4956185;28;19944;-66
2022/02/10 17:29:47;;;;;;;;;;;11.10;56.20;;;9.65;53.43;96412.69;4969751;28;19918;-66
2022/02/10 17:35:48;;;;;;;;;;;11.00;56.80;;;9.49;54.50;96424.13;4969303;28;19922;-66
2022/02/10 17:53:44;;;;;;;;;;;10.60;59.00;;;9.11;56.49;96441.59;4948298;28;19925;-66
2022/02/10 17:56:10;;;;;;;;;;;10.60;59.00;;;9.05;56.45;96442.28;4968682;28;19922;-65
2022/02/10 17:58:36;;;;;;;;;;;10.50;59.10;;;9.01;56.53;96446.19;4952712;28;19918;-66
2022/02/10 18:01:01;;;;;;;;;;;10.50;59.20;;;8.96;57.25;96440.66;4952777;28;20068;-66
2022/02/10 18:03:28;;;;;;;;;;;10.50;59.50;;;8.94;57.03;96450.50;4952624;28;20262;-71
2022/02/10 18:08:24;;;;;;;;;;;10.40;59.70;;;8.82;57.29;96451.84;4952968;28;20008;-70
2022/02/10 18:13:44;;;;;;;;;;;10.30;59.70;;;8.68;57.47;96453.38;4968659;28;20410;-71
2022/02/10 18:16:47;;;;;;;;;;;10.10;60.10;;;8.63;57.19;96457.50;4939894;28;19923;-71
2022/02/10 18:19:17;;;;;;;;;;;10.10;60.30;;;8.53;57.94;96457.66;4956214;28;19950;-75
2022/02/10 18:24:42;;;;;;;;;;;10.00;60.90;;;8.43;58.08;96452.63;4941345;29;19926;-74
2022/02/10 18:27:15;;;;;;;;;;;9.90;61.00;;;8.36;57.90;96469.97;4979604;28;19925;-66
2022/02/10 18:54:24;;;;;;;;;;;9.70;62.20;;;8.18;59.50;96469.34;4954925;28;19928;-71
2022/02/10 19:10:34;;;;;;;;;;;9.30;64.40;;;7.73;61.29;96496.00;4952596;28;20034;-72
2022/02/10 19:13:00;;;;;;;;;;;9.30;64.40;;;7.71;61.31;96488.31;4950912;28;19964;-71
2022/02/10 19:15:33;;;;;;;;;;;9.20;64.60;;;7.68;61.67;96488.59;4951650;28;19918;-71
2022/02/10 19:18:01;;;;;;;;;;;9.30;65.00;;;7.67;61.75;96492.19;4945899;28;19980;-72
2022/02/10 19:20:26;;;;;;;;;;;9.20;65.00;;;7.63;61.93;96489.09;4969178;28;19922;-71
2022/02/10 19:22:52;;;;;;;;;;;9.10;65.00;;;7.60;62.44;96506.91;4938664;28;19925;-70
2022/02/10 19:25:19;;;;;;;;;;;9.10;65.20;;;7.55;62.25;96504.78;4968855;28;20333;-71
2022/02/10 19:27:45;;;;;;;;;;;9.10;65.30;;;7.55;61.83;96503.97;4938273;28;19918;-70
2022/02/10 19:30:12;;;;;;;;;;;9.10;65.30;;;7.53;62.25;96511.16;4969688;28;19926;-69
2022/02/10 19:32:42;;;;;;;;;;;9.10;65.30;;;7.51;62.51;96505.28;4967927;28;19918;-69
2022/02/10 19:35:08;;;;;;;;;;;9.10;65.30;;;7.51;62.74;96513.13;4956301;28;19919;-70
2022/02/10 19:37:34;;;;;;;;;;;9.10;65.60;;;7.48;62.72;96516.88;4965151;28;19922;-70
2022/02/10 19:40:02;;;;;;;;;;;9.10;65.80;;;7.47;62.33;96519.63;4959450;28;19969;-69
2022/02/10 19:42:31;;;;;;;;;;;9.10;65.90;;;7.45;63.10;96517.19;4952378;28;19973;-71
2022/02/10 19:45:00;;;;;;;;;;;9.10;66.00;;;7.44;62.95;96522.56;4960702;28;19918;-68
2022/02/10 19:47:29;;;;;;;;;;;9.00;65.90;;;7.44;63.32;96525.19;4949386;28;20017;-71
2022/02/10 19:49:56;;;;;;;;;;;9.10;65.90;;;7.43;63.36;96526.16;4967711;28;19914;-69
2022/02/10 19:52:22;;;;;;;;;;;9.10;65.90;;;7.40;63.95;96521.25;4950071;28;19922;-68
2022/02/10 19:54:53;;;;;;;;;;;9.00;66.20;;;7.38;63.65;96531.88;4968727;28;20000;-69
2022/02/10 19:57:20;;;;;;;;;;;9.00;66.10;;;7.36;63.91;96529.44;4966897;28;20393;-71
2022/02/10 19:59:46;;;;;;;;;;;9.00;66.30;;;7.31;63.74;96529.09;4970767;28;20374;-74
2022/02/10 20:02:12;;;;;;;;;;;8.90;66.70;;;7.30;62.84;96547.56;4971074;28;19925;-71
2022/02/10 20:04:37;;;;;;;;;;;8.90;66.70;;;7.26;64.39;96541.84;4938476;28;19918;-70
2022/02/10 20:07:03;;;;;;;;;;;8.70;67.30;;;7.22;64.09;96540.47;4954709;28;19925;-70
2022/02/10 20:09:29;;;;;;;;;;;8.80;67.10;;;7.21;63.42;96546.69;4935730;28;19926;-72
2022/02/10 20:11:55;;;;;;;;;;;8.80;66.90;;;7.22;63.51;96550.13;4972294;28;19928;-68
2022/02/10 20:14:22;;;;;;;;;;;8.80;66.90;;;7.18;64.80;96539.16;4963234;28;20457;-71
2022/02/10 20:16:51;;;;;;;;;;;8.80;67.20;;;7.19;64.28;96540.81;4936867;28;20557;-71
2022/02/10 20:19:17;;;;;;;;;;;8.80;67.10;;;7.19;63.97;96532.13;4963266;28;19922;-69
2022/02/10 20:21:43;;;;;;;;;;;8.90;67.10;;;7.18;64.20;96533.94;4947713;28;19972;-68
2022/02/10 20:24:08;;;;;;;;;;;8.90;66.90;;;7.16;63.83;96535.88;4954465;28;19998;-68
2022/02/10 20:26:34;;;;;;;;;;;8.70;67.00;;;7.14;64.25;96526.56;4970416;28;19937;-68
2022/02/10 20:29:00;;;;;;;;;;;8.70;67.30;;;7.14;64.67;96530.00;4970916;28;20013;-68
2022/02/10 20:31:25;;;;;;;;;;;8.80;67.20;;;7.13;64.22;96530.97;4967078;28;19928;-72
2022/02/10 20:33:51;;;;;;;;;;;8.80;67.20;;;7.13;64.91;96533.59;4969845;28;19926;-67
2022/02/10 20:36:17;;;;;;;;;;;8.80;67.30;;;7.12;64.68;96534.56;4947566;28;19932;-68
2022/02/10 20:38:46;;;;;;;;;;;8.70;67.20;;;7.11;64.64;96529.50;4925468;28;19918;-68
2022/02/10 20:41:15;;;;;;;;;;;8.80;67.30;;;7.10;65.08;96533.09;4945600;28;19925;-70
2022/02/10 20:43:42;;;;;;;;;;;8.70;67.60;;;7.10;65.34;96531.28;4958218;28;19921;-70
2022/02/10 20:46:10;;;;;;;;;;;8.70;68.10;;;7.11;64.39;96539.97;4967518;28;19929;-71
2022/02/10 20:48:38;;;;;;;;;;;8.70;67.60;;;7.08;64.60;96530.63;4950855;28;20438;-71
2022/02/10 20:51:08;;;;;;;;;;;8.70;67.70;;;7.08;64.97;96522.78;4955577;28;20318;-72
2022/02/10 20:53:36;;;;;;;;;;;8.70;67.50;;;7.04;64.59;96516.22;4939136;28;19914;-72
2022/02/10 20:56:03;;;;;;;;;;;8.60;67.40;;;7.02;64.61;96519.00;4953339;28;19929;-71
2022/02/10 20:58:29;;;;;;;;;;;8.70;67.60;;;6.97;64.96;96520.41;4967800;28;19936;-69
2022/02/10 21:00:58;;;;;;;;;;;8.50;67.90;;;6.99;65.88;96523.69;4962195;28;20334;-71
2022/02/10 21:03:27;;;;;;;;;;;8.60;67.80;;;6.92;65.06;96525.31;4967670;28;19925;-70
2022/02/10 21:06:30;;;;;;;;;;;8.50;68.20;;;6.91;65.39;96516.63;4952650;28;19926;-71
2022/02/10 21:09:02;;;;;;;;;;;8.60;68.10;;;6.85;64.99;96517.28;4970007;28;19925;-69
2022/02/10 21:11:28;;;;;;;;;;;8.40;68.50;;;6.80;65.53;96518.72;4959926;28;20301;-70
2022/02/10 21:13:56;;;;;;;;;;;8.40;68.80;;;6.81;64.93;96515.94;4953402;28;20409;-71
2022/02/10 21:16:22;;;;;;;;;;;8.50;69.10;;;6.79;65.81;96515.28;4955808;28;20015;-67
2022/02/10 21:18:48;;;;;;;;;;;8.40;68.80;;;6.76;66.20;96508.53;4965631;28;19960;-67
2022/02/10 21:21:17;;;;;;;;;;;8.40;68.90;;;6.78;66.16;96503.16;4966907;28;19918;-67
2022/02/10 21:23:50;;;;;;;;;;;8.40;68.70;;;6.79;66.18;96501.38;4951190;28;19926;-67
2022/02/10 21:26:19;;;;;;;;;;;8.50;68.60;;;6.79;65.97;96506.59;4940880;29;20025;-66
2022/02/10 21:28:45;;;;;;;;;;;8.50;68.50;;;6.79;65.72;96501.38;4950036;28;19918;-67
2022/02/10 21:31:11;;;;;;;;;;;8.50;68.60;;;6.75;66.57;96512.13;4967839;28;19925;-65
2022/02/10 21:38:54;;;;;;;;;;;8.40;69.00;;;6.72;66.24;96494.16;4966632;28;19932;-67
2022/02/10 21:58:53;;;;;;;;;;;8.20;69.50;;;6.62;67.02;96485.59;4965332;28;19930;-66
2022/02/10 22:02:10;;;;;;;;;;;8.30;69.40;;;6.62;66.58;96477.78;4966435;28;20408;-66
2022/02/10 22:19:23;;;;;;;;;;;8.40;69.00;;;6.72;67.14;96460.16;4944793;28;19928;-65
2022/02/10 22:21:57;;;;;;;;;;;8.50;69.00;;;6.72;67.56;96457.56;4959919;28;20008;-64
2022/02/10 22:24:23;;;;;;;;;;;8.50;69.00;;;6.73;67.49;96461.81;4944984;29;19929;-65
2022/02/10 22:26:51;;;;;;;;;;;8.50;69.10;;;6.73;66.48;96467.03;4964000;28;19929;-66
2022/02/10 22:29:45;;;;;;;;;;;8.40;68.90;;;6.72;66.87;96470.63;4950531;28;19918;-65
2022/02/10 22:32:23;;;;;;;;;;;8.50;69.00;;;6.72;66.76;96462.78;4965410;28;19928;-64
2022/02/10 22:34:53;;;;;;;;;;;8.40;69.10;;;6.71;66.89;96466.38;4960807;28;19919;-65
2022/02/10 22:37:20;;;;;;;;;;;8.40;69.20;;;6.69;66.90;96452.63;4948990;28;20201;-65
2022/02/10 22:39:48;;;;;;;;;;;8.40;69.40;;;6.68;67.08;96448.38;4949642;28;19921;-64
2022/02/10 22:42:14;;;;;;;;;;;8.40;69.30;;;6.67;67.68;96444.13;4968768;28;19918;-65
2022/02/10 22:44:40;;;;;;;;;;;8.50;69.30;;;6.68;67.54;96445.78;4968822;28;19937;-65
2022/02/10 22:47:06;;;;;;;;;;;8.40;69.40;;;6.69;67.83;96439.56;4968731;28;19917;-65
2022/02/10 22:49:32;;;;;;;;;;;8.40;69.30;;;6.70;67.43;96443.81;4956488;28;19933;-65
2022/02/10 22:51:58;;;;;;;;;;;8.40;69.40;;;6.71;67.45;96442.84;4968845;28;19937;-64
2022/02/10 22:54:23;;;;;;;;;;;8.40;69.30;;;6.71;67.57;96442.84;4969925;28;19944;-64
2022/02/10 22:56:49;;;;;;;;;;;8.50;69.20;;;6.72;67.64;96444.47;4968832;28;19929;-64
2022/02/10 22:59:15;;;;;;;;;;;8.50;69.20;;;6.74;67.62;96437.28;4969160;28;19933;-66
2022/02/10 23:01:41;;;;;;;;;;;8.50;69.10;;;6.74;67.54;96431.25;4952037;28;19922;-64
2022/02/10 23:04:07;;;;;;;;;;;8.40;69.20;;;6.74;68.09;96434.69;4970085;28;20354;-64
2022/02/10 23:06:33;;;;;;;;;;;8.50;69.20;;;6.76;67.40;96426.69;4968636;28;19922;-65
2022/02/10 23:09:00;;;;;;;;;;;8.50;69.00;;;6.75;67.24;96433.69;4967972;28;19918;-65
2022/02/10 23:11:28;;;;;;;;;;;8.50;68.90;;;6.75;67.22;96423.25;4965365;28;19918;-65
2022/02/10 23:13:55;;;;;;;;;;;8.50;68.90;;;6.73;66.64;96419.97;4951160;28;19929;-65
2022/02/10 23:16:21;;;;;;;;;;;8.30;69.00;;;6.71;67.51;96421.09;4968465;28;20041;-65
2022/02/10 23:18:46;;;;;;;;;;;8.40;69.00;;;6.71;67.32;96427.16;4948126;28;20020;-65
2022/02/10 23:21:14;;;;;;;;;;;8.40;69.00;;;6.68;66.65;96414.41;4952939;28;20279;-65
2022/02/10 23:23:43;;;;;;;;;;;8.30;69.10;;;6.67;66.91;96410.16;4952784;28;19993;-65
2022/02/10 23:26:09;;;;;;;;;;;8.30;69.00;;;6.66;66.47;96412.94;4951229;28;19918;-65
2022/02/10 23:28:36;;;;;;;;;;;8.20;68.70;;;6.62;66.38;96399.34;4953272;28;20290;-66
2022/02/10 23:31:03;;;;;;;;;;;8.20;68.50;;;6.62;66.27;96403.75;4972428;28;19918;-65
2022/02/10 23:33:32;;;;;;;;;;;8.30;68.50;;;6.61;65.46;96402.94;4956516;28;19918;-65
2022/02/10 23:38:33;;;;;;;;;;;8.20;68.00;;;6.60;66.90;96393.47;4972549;28;19961;-66
2022/02/10 23:43:44;;;;;;;;;;;8.30;67.80;;;6.65;66.59;96395.59;4945424;28;19925;-65
2022/02/10 23:46:10;;;;;;;;;;;8.40;67.90;;;6.65;66.90;96393.81;4955987;28;19925;-65
2022/02/10 23:48:36;;;;;;;;;;;8.40;68.00;;;6.68;66.96;96390.06;4972060;28;19918;-65
2022/02/10 23:51:01;;;;;;;;;;;8.40;67.90;;;6.67;66.77;96384.00;4950545;28;19918;-65
2022/02/10 23:53:28;;;;;;;;;;;8.40;68.20;;;6.65;67.47;96372.91;4956219;28;19976;-65
2022/02/10 23:55:54;;;;;;;;;;;8.30;68.60;;;6.65;67.49;96374.69;4955289;28;19922;-65
